Time;durP1;ratioP1;P1;durP2;ratioP2;P2;SDS_P1;SDS_P2;PMS_P1;PMS_P2;Temp;Humidity;BMP_temperature;BMP_pressure;BME280_temperature;BME280_humidity;BME280_pressure;Samples;Min_cycle;Max_cycle;Signal;HPM_P1;HPM_P2
2022/01/16 05:00:41;;;;;;;79.03;27.90;;;0.90;99.90;;;;;;5851651;23;20518;-75
2022/01/16 05:03:09;;;;;;;84.37;29.37;;;1.00;99.90;;;;;;4975044;28;20542;-75
2022/01/16 05:05:37;;;;;;;94.30;30.60;;;1.00;99.90;;;;;;4975278;28;20456;-75
2022/01/16 05:08:04;;;;;;;92.77;31.60;;;0.90;99.90;;;;;;4973852;28;21037;-75
2022/01/16 05:10:31;;;;;;;84.37;30.57;;;0.90;99.90;;;;;;4974749;28;20560;-74
2022/01/16 05:13:15;;;;;;;84.23;31.50;;;0.90;99.90;;;;;;4975516;28;20456;-75
2022/01/16 05:18:28;;;;;;;79.20;29.57;;;0.80;99.90;;;;;;4974946;28;20836;-75
2022/01/16 05:20:55;;;;;;;92.50;31.03;;;0.70;99.90;;;;;;4974600;28;20911;-74
2022/01/16 05:23:22;;;;;;;78.80;29.60;;;0.70;99.90;;;;;;4974786;28;20535;-75
2022/01/16 05:25:49;;;;;;;82.10;31.00;;;0.60;99.90;;;;;;4974542;28;20542;-74
2022/01/16 05:28:16;;;;;;;81.97;31.17;;;0.60;99.90;;;;;;4974823;28;20579;-75
2022/01/16 05:30:44;;;;;;;101.13;32.10;;;0.70;99.90;;;;;;4974489;28;20550;-75
2022/01/16 05:33:11;;;;;;;80.97;29.87;;;0.70;99.90;;;;;;4974621;28;20454;-75
2022/01/16 05:35:38;;;;;;;80.90;31.90;;;0.70;99.90;;;;;;4974490;28;20910;-75
2022/01/16 05:38:05;;;;;;;95.97;33.70;;;0.70;99.90;;;;;;4974362;28;20444;-75
2022/01/16 05:40:32;;;;;;;103.00;34.10;;;0.80;99.90;;;;;;4974095;28;21053;-75
2022/01/16 05:42:59;;;;;;;88.00;32.87;;;0.80;99.90;;;;;;4974573;28;20531;-74
2022/01/16 05:45:26;;;;;;;103.40;32.13;;;0.90;99.90;;;;;;4974451;28;20456;-75
2022/01/16 05:47:55;;;;;;;97.50;29.00;;;0.90;99.90;;;;;;4974326;28;20547;-75
2022/01/16 05:50:22;;;;;;;99.63;30.73;;;0.90;99.90;;;;;;4974004;28;20470;-75
2022/01/16 05:52:49;;;;;;;84.80;29.27;;;1.00;99.90;;;;;;4974033;28;20442;-75
2022/01/16 05:55:16;;;;;;;102.37;29.37;;;1.10;99.90;;;;;;4974343;28;20543;-74
2022/01/16 05:57:44;;;;;;;100.93;31.00;;;1.10;99.90;;;;;;4974277;28;20542;-77
2022/01/16 06:00:14;;;;;;;101.43;29.47;;;1.00;99.90;;;;;;4974134;28;20447;-77
2022/01/16 06:02:41;;;;;;;92.27;30.17;;;1.00;99.90;;;;;;4974283;28;20531;-77
2022/01/16 06:05:12;;;;;;;95.70;28.70;;;1.10;99.90;;;;;;4973870;28;20531;-77
2022/01/16 06:07:40;;;;;;;84.30;31.23;;;1.10;99.90;;;;;;4973975;28;20482;-77
2022/01/16 06:10:08;;;;;;;80.77;27.50;;;1.10;99.90;;;;;;4973627;28;20654;-75
2022/01/16 06:12:35;;;;;;;92.57;30.90;;;1.20;99.90;;;;;;4973870;28;20551;-75
2022/01/16 06:15:02;;;;;;;88.90;31.03;;;1.20;99.90;;;;;;4973812;28;21003;-75
2022/01/16 06:17:28;;;;;;;101.50;31.60;;;1.10;99.90;;;;;;4973796;28;20535;-75
2022/01/16 06:19:55;;;;;;;102.50;31.77;;;1.00;99.90;;;;;;4972955;28;20452;-75
2022/01/16 06:22:24;;;;;;;95.80;32.73;;;1.10;99.90;;;;;;4973847;28;20555;-75
2022/01/16 06:24:50;;;;;;;115.33;32.83;;;1.00;99.90;;;;;;4973601;28;20480;-75
2022/01/16 06:27:17;;;;;;;129.13;33.17;;;1.00;99.90;;;;;;4966131;28;20535;-75
2022/01/16 06:29:44;;;;;;;121.13;33.40;;;0.90;99.90;;;;;;4953977;28;20492;-75
2022/01/16 06:32:11;;;;;;;100.20;32.33;;;1.00;99.90;;;;;;4954191;28;20564;-75
2022/01/16 06:34:38;;;;;;;95.40;32.90;;;0.90;99.90;;;;;;4954486;28;20539;-75
2022/01/16 06:37:05;;;;;;;108.17;34.07;;;0.80;99.90;;;;;;4954439;28;20540;-75
2022/01/16 06:39:34;;;;;;;96.57;33.43;;;0.70;99.90;;;;;;4954178;28;20485;-75
2022/01/16 06:42:01;;;;;;;94.23;30.07;;;0.60;99.90;;;;;;4954120;28;20481;-75
2022/01/16 06:44:27;;;;;;;109.77;32.87;;;0.60;99.90;;;;;;4954132;28;20488;-74
2022/01/16 06:46:54;;;;;;;107.93;31.00;;;0.60;99.90;;;;;;4953943;28;20457;-75
2022/01/16 06:49:21;;;;;;;82.90;31.77;;;0.50;99.90;;;;;;4953991;28;20580;-75
2022/01/16 06:51:48;;;;;;;90.60;32.47;;;0.50;99.90;;;;;;4954193;28;20568;-75
2022/01/16 06:54:15;;;;;;;92.50;31.90;;;0.60;99.90;;;;;;4954167;28;20495;-77
2022/01/16 06:56:43;;;;;;;97.97;32.00;;;0.60;99.90;;;;;;4954176;28;20459;-77
2022/01/16 06:59:10;;;;;;;103.83;33.10;;;0.60;99.90;;;;;;4953827;28;20548;-77
2022/01/16 07:01:37;;;;;;;107.83;36.30;;;0.60;99.90;;;;;;4953665;28;20581;-77
2022/01/16 07:04:04;;;;;;;106.87;32.20;;;0.70;99.90;;;;;;4954158;28;20532;-77
2022/01/16 07:06:31;;;;;;;89.33;33.33;;;0.80;99.90;;;;;;4954102;28;20556;-77
2022/01/16 07:08:58;;;;;;;93.47;32.37;;;0.90;99.90;;;;;;4953787;28;20584;-75
2022/01/16 07:11:25;;;;;;;91.70;32.07;;;0.90;99.90;;;;;;4953881;28;20559;-76
2022/01/16 07:13:53;;;;;;;105.93;33.50;;;0.80;99.90;;;;;;4953792;28;20868;-77
2022/01/16 07:16:21;;;;;;;98.13;33.80;;;0.70;99.90;;;;;;4953736;28;20455;-77
2022/01/16 07:18:48;;;;;;;119.53;33.60;;;0.70;99.90;;;;;;4953857;28;20456;-77
2022/01/16 07:21:15;;;;;;;98.27;34.77;;;0.70;99.90;;;;;;4953849;28;20567;-77
2022/01/16 07:23:43;;;;;;;112.50;34.67;;;0.70;99.90;;;;;;4953718;28;20539;-74
2022/01/16 07:26:10;;;;;;;95.43;35.07;;;0.70;99.90;;;;;;4953758;28;20512;-77
2022/01/16 07:28:38;;;;;;;98.03;33.80;;;0.70;99.90;;;;;;4953549;28;20524;-75
2022/01/16 07:31:06;;;;;;;108.07;33.30;;;0.80;99.90;;;;;;4955767;28;20551;-74
2022/01/16 07:33:33;;;;;;;112.50;35.10;;;0.80;99.90;;;;;;4957728;28;20491;-74
2022/01/16 07:36:00;;;;;;;100.90;35.47;;;0.80;99.90;;;;;;4957768;28;20615;-74
2022/01/16 07:38:27;;;;;;;96.10;32.03;;;0.80;99.90;;;;;;4957428;28;20493;-74
2022/01/16 07:40:54;;;;;;;97.90;34.60;;;0.80;99.90;;;;;;4957385;28;20482;-74
2022/01/16 07:43:21;;;;;;;106.93;34.40;;;0.70;99.90;;;;;;4957528;28;20488;-74
2022/01/16 07:45:48;;;;;;;99.30;34.83;;;0.70;99.90;;;;;;4957681;28;20457;-74
2022/01/16 07:48:16;;;;;;;89.17;33.20;;;0.80;99.90;;;;;;4957378;28;20551;-74
2022/01/16 07:50:43;;;;;;;97.07;33.20;;;0.80;99.90;;;;;;4956599;28;20507;-74
2022/01/16 07:53:10;;;;;;;99.80;33.40;;;0.90;99.90;;;;;;4957489;28;21039;-74
2022/01/16 07:55:37;;;;;;;97.13;35.40;;;0.90;99.90;;;;;;4976260;28;20535;-74
2022/01/16 07:58:04;;;;;;;90.77;31.87;;;0.90;99.90;;;;;;4976722;28;20539;-74
2022/01/16 08:00:32;;;;;;;104.67;34.30;;;0.90;99.90;;;;;;4976339;28;20558;-75
2022/01/16 08:02:59;;;;;;;93.23;33.60;;;0.80;99.90;;;;;;4995714;28;20928;-75
2022/01/16 08:05:28;;;;;;;117.23;36.93;;;0.70;99.90;;;;;;4995585;28;20901;-74
2022/01/16 08:07:55;;;;;;;97.07;35.20;;;0.70;99.90;;;;;;4996154;28;20482;-73
2022/01/16 08:10:22;;;;;;;105.87;35.30;;;0.70;99.90;;;;;;4994652;28;20573;-74
2022/01/16 08:12:48;;;;;;;102.00;34.07;;;0.70;99.90;;;;;;4995817;28;20533;-74
2022/01/16 08:15:16;;;;;;;122.80;34.87;;;0.80;99.90;;;;;;4982730;28;20546;-74
2022/01/16 08:17:43;;;;;;;101.33;34.87;;;0.70;99.90;;;;;;4976251;28;20483;-75
2022/01/16 08:20:11;;;;;;;122.00;36.20;;;0.60;99.90;;;;;;4975434;28;20968;-74
2022/01/16 08:22:40;;;;;;;129.97;38.73;;;0.50;99.90;;;;;;4960311;28;20547;-74
2022/01/16 08:25:08;;;;;;;123.90;37.70;;;0.50;99.90;;;;;;4973600;28;20936;-74
2022/01/16 08:27:35;;;;;;;118.67;35.70;;;0.50;99.90;;;;;;4974788;28;20487;-74
2022/01/16 08:30:02;;;;;;;129.43;38.90;;;0.40;99.90;;;;;;4973894;28;20502;-75
2022/01/16 08:32:29;;;;;;;122.03;39.20;;;0.40;99.90;;;;;;4974376;28;20567;-74
2022/01/16 08:34:56;;;;;;;128.57;38.93;;;0.40;99.90;;;;;;4974314;28;20491;-74
2022/01/16 08:37:23;;;;;;;120.80;41.57;;;0.40;99.90;;;;;;4969403;28;20457;-74
2022/01/16 08:39:51;;;;;;;100.67;39.07;;;0.40;99.90;;;;;;4962506;28;20555;-74
2022/01/16 08:42:18;;;;;;;106.40;38.63;;;0.40;99.90;;;;;;4973809;28;21175;-74
2022/01/16 08:44:45;;;;;;;109.73;38.43;;;0.40;99.90;;;;;;4974421;28;20547;-74
2022/01/16 08:47:12;;;;;;;111.77;43.60;;;0.40;99.90;;;;;;4956001;28;20547;-74
2022/01/16 08:49:39;;;;;;;100.07;35.07;;;0.40;99.90;;;;;;4960090;28;21453;-74
2022/01/16 08:52:06;;;;;;;101.83;34.53;;;0.40;99.90;;;;;;4973609;28;20486;-74
2022/01/16 08:54:33;;;;;;;92.37;34.30;;;0.40;99.90;;;;;;4974026;28;20551;-74
2022/01/16 08:57:02;;;;;;;85.53;32.83;;;0.40;99.90;;;;;;4973812;28;20456;-74
2022/01/16 08:59:30;;;;;;;75.90;31.57;;;0.40;99.90;;;;;;4953984;28;20456;-74
2022/01/16 09:01:57;;;;;;;92.00;33.57;;;0.40;99.90;;;;;;4955364;28;21016;-73
2022/01/16 09:04:24;;;;;;;78.63;31.83;;;0.40;99.90;;;;;;4966557;28;20484;-73
2022/01/16 09:06:51;;;;;;;82.10;29.93;;;0.30;99.90;;;;;;4960600;28;20535;-74
2022/01/16 09:09:18;;;;;;;79.13;31.17;;;0.30;99.90;;;;;;4954294;28;20568;-74
2022/01/16 09:11:44;;;;;;;84.60;32.47;;;0.30;99.90;;;;;;4959939;28;20607;-74
2022/01/16 09:14:13;;;;;;;68.07;29.77;;;0.30;99.90;;;;;;4974435;28;20487;-74
2022/01/16 09:16:40;;;;;;;72.13;29.90;;;0.40;99.90;;;;;;4974380;28;20543;-74
2022/01/16 09:19:07;;;;;;;82.83;30.93;;;0.30;99.90;;;;;;4973465;28;20544;-74
2022/01/16 09:21:34;;;;;;;77.87;30.60;;;0.30;99.90;;;;;;4974006;28;20507;-74
2022/01/16 09:24:01;;;;;;;80.37;33.80;;;0.30;99.90;;;;;;4967101;28;20992;-74
2022/01/16 09:26:28;;;;;;;89.23;33.17;;;0.30;99.90;;;;;;4955070;28;20535;-75
2022/01/16 09:28:55;;;;;;;89.90;33.40;;;0.30;99.90;;;;;;4968771;28;20999;-76
2022/01/16 09:31:23;;;;;;;93.03;34.30;;;0.30;99.90;;;;;;4973304;28;20602;-76
2022/01/16 09:33:50;;;;;;;78.17;30.63;;;0.30;99.90;;;;;;4974323;28;20535;-76
2022/01/16 09:36:17;;;;;;;86.33;32.00;;;0.40;99.90;;;;;;4973982;28;20499;-76
2022/01/16 09:38:44;;;;;;;75.57;30.97;;;0.30;99.90;;;;;;4973650;28;20987;-76
2022/01/16 09:41:12;;;;;;;80.30;32.27;;;0.30;99.90;;;;;;4973717;28;20523;-76
2022/01/16 09:43:39;;;;;;;78.20;30.73;;;0.30;99.90;;;;;;4970408;28;20455;-76
2022/01/16 09:46:06;;;;;;;89.17;29.97;;;0.30;99.90;;;;;;4961134;28;20535;-76
2022/01/16 09:48:35;;;;;;;76.40;30.60;;;0.30;99.90;;;;;;4974023;28;20531;-77
2022/01/16 09:51:02;;;;;;;79.63;30.47;;;0.30;99.90;;;;;;4973334;28;20501;-76
2022/01/16 09:53:30;;;;;;;84.37;30.50;;;0.30;99.90;;;;;;4972755;28;20514;-76
2022/01/16 09:55:56;;;;;;;87.17;31.50;;;0.20;99.90;;;;;;4973575;28;20490;-77
2022/01/16 09:58:24;;;;;;;82.87;30.90;;;0.20;99.90;;;;;;4965053;28;20543;-76
2022/01/16 10:00:52;;;;;;;85.37;30.50;;;0.20;99.90;;;;;;4953820;28;20512;-76
2022/01/16 10:03:42;;;;;;;83.73;30.10;;;0.30;99.90;;;;;;4969882;28;20444;-76
2022/01/16 10:06:15;;;;;;;84.43;31.87;;;0.20;99.90;;;;;;4954517;28;20472;-76
2022/01/16 10:08:43;;;;;;;86.77;32.63;;;0.20;99.90;;;;;;4964343;28;20460;-77
2022/01/16 10:11:24;;;;;;;80.10;32.00;;;0.20;99.90;;;;;;4972838;28;20569;-77
2022/01/16 10:14:03;;;;;;;93.87;33.00;;;0.20;99.90;;;;;;4970385;28;20524;-76
2022/01/16 10:16:32;;;;;;;87.63;31.27;;;0.20;99.90;;;;;;4962276;28;20959;-76
2022/01/16 10:19:01;;;;;;;84.37;31.70;;;0.20;99.90;;;;;;4960740;28;20456;-77
2022/01/16 10:21:34;;;;;;;94.63;32.50;;;0.30;99.90;;;;;;4969299;28;20563;-76
2022/01/16 10:24:14;;;;;;;90.67;33.10;;;0.30;99.90;;;;;;4958063;28;20462;-77
2022/01/16 10:26:41;;;;;;;83.10;32.20;;;0.40;99.90;;;;;;4973224;28;20538;-76
2022/01/16 10:29:10;;;;;;;116.63;41.80;;;0.40;99.90;;;;;;4972633;28;20534;-77
2022/01/16 10:31:37;;;;;;;104.97;37.77;;;0.40;99.90;;;;;;4972215;28;20591;-75
2022/01/16 10:34:23;;;;;;;104.40;37.30;;;0.50;99.90;;;;;;4957634;28;20879;-76
2022/01/16 10:36:50;;;;;;;111.37;38.70;;;0.50;99.90;;;;;;4963532;28;20471;-76
2022/01/16 10:39:17;;;;;;;100.63;36.23;;;0.60;99.90;;;;;;4963051;28;20457;-76
2022/01/16 10:41:44;;;;;;;103.17;39.33;;;0.60;99.90;;;;;;4961877;28;20905;-77
2022/01/16 10:44:27;;;;;;;111.10;38.73;;;0.60;99.90;;;;;;4958309;28;20483;-77
2022/01/16 10:46:54;;;;;;;108.73;39.20;;;0.60;99.90;;;;;;4973019;28;21003;-76
2022/01/16 10:49:22;;;;;;;104.43;38.30;;;0.60;99.90;;;;;;4967187;28;20555;-76
2022/01/16 10:52:03;;;;;;;125.13;40.67;;;0.60;99.90;;;;;;4953883;28;20476;-76
2022/01/16 10:54:33;;;;;;;106.67;38.77;;;0.60;99.90;;;;;;4954075;28;20544;-77
2022/01/16 10:57:17;;;;;;;116.27;41.83;;;0.60;99.90;;;;;;4964178;28;20457;-76
2022/01/16 10:59:45;;;;;;;106.67;38.70;;;0.70;99.90;;;;;;4955171;28;20486;-76
2022/01/16 11:02:14;;;;;;;113.70;42.00;;;0.70;99.90;;;;;;4952754;28;20571;-79
2022/01/16 11:04:42;;;;;;;119.40;42.43;;;0.70;99.90;;;;;;4962681;28;20519;-77
2022/01/16 11:07:10;;;;;;;111.40;37.47;;;0.70;99.90;;;;;;4973543;28;20545;-77
2022/01/16 11:09:37;;;;;;;115.23;40.50;;;0.80;99.90;;;;;;4958957;28;20488;-78
2022/01/16 11:12:04;;;;;;;110.10;41.67;;;0.80;99.90;;;;;;4969940;28;20502;-75
2022/01/16 11:14:31;;;;;;;105.10;41.53;;;0.80;99.90;;;;;;4984326;23;20591;-76
2022/01/16 11:16:59;;;;;;;101.87;37.10;;;0.90;99.90;;;;;;4972816;28;20988;-77
2022/01/16 11:19:29;;;;;;;108.60;40.83;;;0.90;99.90;;;;;;4959888;28;20535;-75
2022/01/16 11:22:03;;;;;;;102.30;39.50;;;0.80;99.90;;;;;;4968441;28;20452;-78
2022/01/16 11:24:46;;;;;;;102.27;37.37;;;0.90;99.90;;;;;;4954013;28;20507;-78
2022/01/16 11:27:15;;;;;;;86.63;35.50;;;0.90;99.90;;;;;;4954214;28;20452;-77
2022/01/16 11:29:43;;;;;;;88.17;34.73;;;1.00;99.90;;;;;;4953470;28;20559;-77
2022/01/16 11:32:10;;;;;;;96.37;35.07;;;0.90;99.90;;;;;;4969952;28;20479;-78
2022/01/16 11:34:37;;;;;;;91.20;33.80;;;1.00;99.90;;;;;;4958551;28;20594;-77
2022/01/16 11:37:06;;;;;;;80.03;30.90;;;1.00;99.90;;;;;;4964319;28;20551;-77
2022/01/16 11:39:39;;;;;;;79.50;31.30;;;1.00;99.90;;;;;;4965695;28;20546;-77
2022/01/16 11:42:15;;;;;;;84.07;30.57;;;1.00;99.90;;;;;;4973509;28;20462;-77
2022/01/16 11:44:52;;;;;;;74.83;29.60;;;1.00;99.90;;;;;;4968033;28;20487;-78
2022/01/16 11:47:19;;;;;;;68.20;27.50;;;1.00;99.90;;;;;;4954470;28;20483;-78
2022/01/16 11:49:46;;;;;;;72.33;30.43;;;1.10;99.90;;;;;;4953157;28;20500;-77
2022/01/16 11:52:16;;;;;;;87.90;33.60;;;1.00;99.90;;;;;;4971260;28;20459;-78
2022/01/16 11:54:45;;;;;;;66.40;29.00;;;1.10;99.90;;;;;;4968429;28;20564;-77
2022/01/16 11:57:30;;;;;;;74.63;30.97;;;1.10;99.90;;;;;;4954016;28;20487;-78
2022/01/16 12:00:10;;;;;;;64.30;25.40;;;1.10;99.90;;;;;;4952305;28;20463;-77
2022/01/16 12:02:39;;;;;;;65.70;27.03;;;1.20;99.90;;;;;;4957296;28;20487;-84
2022/01/16 12:05:07;;;;;;;60.93;27.30;;;1.20;99.90;;;;;;4972479;28;20556;-69
2022/01/16 12:07:48;;;;;;;66.70;28.67;;;1.10;99.90;;;;;;4959937;28;20540;-69
2022/01/16 12:10:54;;;;;;;58.33;27.23;;;1.20;99.90;;;;;;4967539;28;20487;-69
2022/01/16 12:13:54;;;;;;;52.73;24.20;;;1.20;99.90;;;;;;4962278;28;20471;-79
2022/01/16 12:16:33;;;;;;;57.73;25.17;;;1.30;99.90;;;;;;4973872;28;20467;-79
2022/01/16 12:19:47;;;;;;;59.40;24.43;;;1.20;99.90;;;;;;4976588;28;20506;-80
2022/01/16 12:22:20;;;;;;;67.67;29.03;;;1.20;99.90;;;;;;4977408;28;20884;-80
2022/01/16 12:25:04;;;;;;;56.47;24.10;;;1.20;99.90;;;;;;4962880;28;20471;-80
2022/01/16 12:27:45;;;;;;;51.33;22.10;;;1.30;99.90;;;;;;4970581;28;20457;-79
2022/01/16 12:30:35;;;;;;;55.63;25.20;;;1.30;99.90;;;;;;4974089;28;20452;-80
2022/01/16 12:33:10;;;;;;;55.90;26.10;;;1.40;99.90;;;;;;4978139;28;20487;-81
2022/01/16 12:36:12;;;;;;;68.90;31.37;;;1.40;99.90;;;;;;4978767;28;20480;-82
2022/01/16 12:38:53;;;;;;;51.33;25.07;;;1.40;99.90;;;;;;4977994;28;21021;-82
2022/01/16 12:41:27;;;;;;;62.73;30.23;;;1.50;99.90;;;;;;4977997;28;20464;-80
2022/01/16 12:43:56;;;;;;;63.43;30.30;;;1.50;99.90;;;;;;4977674;28;20558;-82
2022/01/16 12:46:27;;;;;;;56.70;26.10;;;1.50;99.90;;;;;;4978555;28;20542;-82
2022/01/16 12:48:55;;;;;;;81.40;44.03;;;1.50;99.90;;;;;;4978494;28;20877;-81
2022/01/16 12:51:26;;;;;;;64.60;27.77;;;1.60;99.90;;;;;;4979051;28;20538;-80
2022/01/16 12:53:54;;;;;;;62.00;29.07;;;1.60;99.90;;;;;;4987816;28;20498;-65
2022/01/16 12:56:28;;;;;;;56.97;27.53;;;1.70;99.90;;;;;;4965372;28;20461;-69
2022/01/16 12:58:58;;;;;;;58.37;27.20;;;1.70;99.90;;;;;;4971209;28;20482;-67
2022/01/16 13:01:26;;;;;;;58.83;29.10;;;1.70;99.90;;;;;;4955686;28;20540;-66
2022/01/16 13:03:53;;;;;;;61.23;28.03;;;1.70;99.90;;;;;;4968043;28;20504;-79
2022/01/16 13:06:26;;;;;;;55.57;27.77;;;1.70;99.90;;;;;;4976863;28;20528;-81
2022/01/16 13:08:59;;;;;;;51.17;25.00;;;1.80;99.90;;;;;;4976308;28;21181;-80
2022/01/16 13:11:29;;;;;;;61.80;27.27;;;1.80;99.90;;;;;;4976379;28;20483;-77
2022/01/16 13:13:57;;;;;;;54.53;25.57;;;1.80;99.90;;;;;;4963997;28;21071;-76
2022/01/16 13:16:26;;;;;;;64.73;29.00;;;1.80;99.90;;;;;;4955127;28;20467;-75
2022/01/16 13:19:05;;;;;;;70.03;33.17;;;1.80;99.90;;;;;;4954904;28;20547;-75
2022/01/16 13:21:41;;;;;;;62.03;29.63;;;1.80;99.90;;;;;;4955685;28;20511;-75
2022/01/16 13:24:09;;;;;;;67.80;32.23;;;1.90;99.90;;;;;;4955516;28;20495;-75
2022/01/16 13:26:37;;;;;;;67.70;32.43;;;1.90;99.90;;;;;;4955396;28;20539;-75
2022/01/16 13:29:05;;;;;;;57.97;28.13;;;2.00;99.90;;;;;;4953438;28;20543;-75
2022/01/16 13:31:34;;;;;;;75.30;38.53;;;2.00;99.90;;;;;;4955255;28;20876;-75
2022/01/16 13:34:09;;;;;;;57.10;26.43;;;1.90;99.90;;;;;;4955336;28;20485;-75
2022/01/16 13:36:36;;;;;;;52.93;27.20;;;1.90;99.90;;;;;;4954962;28;20449;-75
2022/01/16 13:39:04;;;;;;;57.80;29.63;;;1.90;99.90;;;;;;4954682;28;20540;-75
2022/01/16 13:41:31;;;;;;;59.97;29.60;;;2.00;99.90;;;;;;4954796;28;20972;-74
2022/01/16 13:43:59;;;;;;;65.17;29.43;;;2.00;99.90;;;;;;4955401;28;20481;-74
2022/01/16 13:46:30;;;;;;;62.63;30.10;;;2.00;99.90;;;;;;4954689;28;21028;-74
2022/01/16 13:49:05;;;;;;;61.37;26.87;;;2.00;99.90;;;;;;4954055;28;20452;-75
2022/01/16 13:51:32;;;;;;;55.37;26.93;;;2.00;99.90;;;;;;4954645;28;20586;-74
2022/01/16 13:54:12;;;;;;;54.23;27.40;;;2.00;99.90;;;;;;4954651;28;20556;-74
2022/01/16 13:56:50;;;;;;;54.47;25.63;;;2.00;99.90;;;;;;4954747;28;20449;-74
2022/01/16 13:59:18;;;;;;;60.07;26.20;;;2.10;99.90;;;;;;4954390;28;20464;-69
2022/01/16 14:01:53;;;;;;;56.38;27.35;;;2.10;99.90;;;;;;4956745;28;21024;-69
2022/01/16 14:04:20;;;;;;;53.80;25.20;;;2.20;99.90;;;;;;4954524;28;20262;-74
2022/01/16 14:06:49;;;;;;;52.77;25.47;;;2.20;99.90;;;;;;4970332;28;20492;-75
2022/01/16 14:09:16;;;;;;;48.97;24.57;;;2.20;99.90;;;;;;4971358;28;20455;-74
2022/01/16 14:11:46;;;;;;;52.10;26.23;;;2.20;99.90;;;;;;4960315;28;20537;-76
2022/01/16 14:14:14;;;;;;;49.93;26.67;;;2.40;99.90;;;;;;4973989;28;20337;-75
2022/01/16 14:16:47;;;;;;;55.80;24.60;;;2.40;99.90;;;;;;4973863;28;20543;-74
2022/01/16 14:19:15;;;;;;;52.93;25.40;;;2.40;99.90;;;;;;4957457;28;20559;-75
2022/01/16 14:22:02;;;;;;;55.67;30.60;;;2.40;99.90;;;;;;4973832;28;20444;-75
2022/01/16 14:24:30;;;;;;;57.83;27.20;;;2.40;99.90;;;;;;4973782;28;20547;-75
2022/01/16 14:27:01;;;;;;;48.53;25.67;;;2.40;99.90;;;;;;4958672;28;20463;-75
2022/01/16 14:29:28;;;;;;;53.87;25.67;;;2.30;99.90;;;;;;4972768;28;20883;-74
2022/01/16 14:31:58;;;;;;;59.17;27.77;;;2.30;99.90;;;;;;4965126;28;20918;-75
2022/01/16 14:34:27;;;;;;;64.53;33.43;;;2.40;99.90;;;;;;4954579;28;20563;-74
2022/01/16 14:36:54;;;;;;;53.20;26.50;;;2.40;99.90;;;;;;4968685;28;20535;-74
2022/01/16 14:39:22;;;;;;;56.67;28.73;;;2.40;99.90;;;;;;4972891;28;20535;-74
2022/01/16 14:41:51;;;;;;;50.50;25.20;;;2.40;99.90;;;;;;4973020;28;21031;-74
2022/01/16 14:44:19;;;;;;;50.57;24.40;;;2.50;99.90;;;;;;4960812;28;20567;-75
2022/01/16 14:46:47;;;;;;;45.40;23.67;;;2.40;99.90;;;;;;4964661;28;20472;-75
2022/01/16 14:49:15;;;;;;;48.63;22.80;;;2.50;99.90;;;;;;4970364;28;20467;-74
2022/01/16 14:51:43;;;;;;;51.63;25.50;;;2.50;99.90;;;;;;4956814;28;20536;-74
2022/01/16 14:54:11;;;;;;;53.30;25.17;;;2.50;99.90;;;;;;4971954;28;20471;-74
2022/01/16 14:56:38;;;;;;;49.20;24.53;;;2.50;99.90;;;;;;4971541;28;20898;-74
2022/01/16 14:59:06;;;;;;;45.60;22.87;;;2.50;99.90;;;;;;4972230;28;20483;-74
2022/01/16 15:01:33;;;;;;;45.20;23.67;;;2.50;99.90;;;;;;4970115;28;20546;-74
2022/01/16 15:04:01;;;;;;;49.67;25.10;;;2.50;99.90;;;;;;4959395;28;20551;-74
2022/01/16 15:06:29;;;;;;;51.37;24.13;;;2.50;99.90;;;;;;4972818;28;20876;-74
2022/01/16 15:08:59;;;;;;;51.10;22.63;;;2.60;99.90;;;;;;4971698;28;20539;-74
2022/01/16 15:11:27;;;;;;;44.90;23.37;;;2.70;99.90;;;;;;4971739;28;20862;-75
2022/01/16 15:13:56;;;;;;;45.00;23.03;;;2.70;99.90;;;;;;4958220;28;20578;-75
2022/01/16 15:16:25;;;;;;;44.70;22.30;;;2.80;99.90;;;;;;4964500;28;20473;-75
2022/01/16 15:18:56;;;;;;;38.87;22.50;;;2.80;99.90;;;;;;4964638;28;20815;-75
2022/01/16 15:21:30;;;;;;;44.87;22.53;;;2.80;99.90;;;;;;4972284;28;20494;-75
2022/01/16 15:24:00;;;;;;;39.77;20.93;;;2.80;99.90;;;;;;4953381;28;20539;-75
2022/01/16 15:26:27;;;;;;;39.80;21.43;;;2.80;99.90;;;;;;4961548;28;20491;-75
2022/01/16 15:28:54;;;;;;;46.23;24.03;;;2.80;99.90;;;;;;4972192;28;20536;-74
2022/01/16 15:31:21;;;;;;;36.40;20.23;;;2.80;99.90;;;;;;4972192;28;20586;-75
2022/01/16 15:33:48;;;;;;;39.60;21.87;;;2.80;99.90;;;;;;4956866;28;20482;-74
2022/01/16 15:36:16;;;;;;;44.70;23.00;;;2.90;99.90;;;;;;4966208;28;20484;-74
2022/01/16 15:38:43;;;;;;;41.53;23.20;;;2.90;99.90;;;;;;4962617;28;20475;-74
2022/01/16 15:41:13;;;;;;;43.73;22.20;;;3.00;99.90;;;;;;4972065;28;20487;-74
2022/01/16 15:43:40;;;;;;;46.10;20.87;;;3.00;99.90;;;;;;4955257;28;20477;-74
2022/01/16 15:46:07;;;;;;;38.37;20.57;;;3.10;99.90;;;;;;4955502;28;20543;-73
2022/01/16 15:48:34;;;;;;;38.70;21.37;;;3.10;99.90;;;;;;4963336;28;20944;-74
2022/01/16 15:51:02;;;;;;;35.50;20.00;;;3.10;99.90;;;;;;4965153;28;20530;-74
2022/01/16 15:53:28;;;;;;;40.93;21.60;;;3.10;99.90;;;;;;4976777;28;20587;-74
2022/01/16 15:55:56;;;;;;;41.50;22.23;;;3.20;99.90;;;;;;4974146;28;20535;-74
2022/01/16 15:58:24;;;;;;;47.87;23.17;;;3.20;99.90;;;;;;4961419;28;21003;-74
2022/01/16 16:00:51;;;;;;;71.10;25.57;;;3.20;99.90;;;;;;4962902;28;20511;-74
2022/01/16 16:03:18;;;;;;;48.90;24.73;;;3.30;99.90;;;;;;4964014;28;20547;-75
2022/01/16 16:05:45;;;;;;;44.13;23.23;;;3.30;99.90;;;;;;4970902;28;20480;-75
2022/01/16 16:08:12;;;;;;;38.60;21.30;;;3.30;99.90;;;;;;4974566;28;20487;-74
2022/01/16 16:10:39;;;;;;;38.73;21.80;;;3.30;99.90;;;;;;4966279;28;20531;-74
2022/01/16 16:13:06;;;;;;;42.27;21.80;;;3.30;99.90;;;;;;4963646;28;20516;-74
2022/01/16 16:15:37;;;;;;;46.90;23.23;;;3.30;99.90;;;;;;4968942;28;20550;-75
2022/01/16 16:18:04;;;;;;;38.80;22.50;;;3.30;99.90;;;;;;4961271;28;20489;-74
2022/01/16 16:20:31;;;;;;;40.13;22.90;;;3.30;99.90;;;;;;4966397;28;20498;-74
2022/01/16 16:23:00;;;;;;;44.57;23.27;;;3.40;99.90;;;;;;4975715;28;20990;-75
2022/01/16 16:25:30;;;;;;;38.97;23.07;;;3.40;99.90;;;;;;4974480;28;20514;-74
2022/01/16 16:27:59;;;;;;;43.30;23.73;;;3.30;99.90;;;;;;4970250;28;20830;-75
2022/01/16 16:30:27;;;;;;;49.70;27.87;;;3.30;99.90;;;;;;4964532;28;20452;-74
2022/01/16 16:32:58;;;;;;;45.00;26.50;;;3.20;99.90;;;;;;4973242;28;20570;-74
2022/01/16 16:35:26;;;;;;;48.03;26.80;;;3.20;99.90;;;;;;4975935;28;20480;-75
2022/01/16 16:37:54;;;;;;;48.83;26.67;;;3.20;99.90;;;;;;4959743;28;20456;-75
2022/01/16 16:40:22;;;;;;;45.97;26.17;;;3.10;99.90;;;;;;4991101;28;20542;-74
2022/01/16 16:42:50;;;;;;;40.07;22.23;;;3.00;99.90;;;;;;4969957;28;20870;-74
2022/01/16 16:45:17;;;;;;;42.33;22.60;;;3.00;99.90;;;;;;4975756;28;20503;-75
2022/01/16 16:47:44;;;;;;;41.83;22.17;;;3.00;99.90;;;;;;4975815;28;20491;-74
2022/01/16 16:50:15;;;;;;;45.43;21.63;;;2.90;99.90;;;;;;4959290;28;20461;-74
2022/01/16 16:52:42;;;;;;;41.13;22.87;;;3.00;99.90;;;;;;4975488;28;20971;-74
2022/01/16 16:55:11;;;;;;;43.70;22.70;;;3.10;99.90;;;;;;4974649;28;20605;-74
2022/01/16 16:57:38;;;;;;;41.30;22.57;;;3.10;99.90;;;;;;4961727;28;20555;-74
2022/01/16 17:00:08;;;;;;;37.77;20.73;;;3.20;99.90;;;;;;4971913;28;20488;-75
2022/01/16 17:02:35;;;;;;;47.43;22.83;;;3.20;99.90;;;;;;4976550;28;20487;-74
2022/01/16 17:05:02;;;;;;;44.83;23.50;;;3.30;99.90;;;;;;4970280;28;20563;-75
2022/01/16 17:07:30;;;;;;;42.53;23.33;;;3.30;99.90;;;;;;4967536;28;20535;-75
2022/01/16 17:09:57;;;;;;;40.60;21.87;;;3.30;99.90;;;;;;4986000;28;20550;-75
2022/01/16 17:12:24;;;;;;;39.03;21.87;;;3.30;99.90;;;;;;4975402;28;20526;-75
2022/01/16 17:14:51;;;;;;;44.17;22.80;;;3.40;99.90;;;;;;4973846;28;20831;-75
2022/01/16 17:17:17;;;;;;;38.10;21.77;;;3.30;99.90;;;;;;4974166;28;20498;-74
2022/01/16 17:19:48;;;;;;;44.10;23.00;;;3.30;99.90;;;;;;4973803;28;20547;-75
2022/01/16 17:22:17;;;;;;;43.33;23.20;;;3.30;99.90;;;;;;4989903;28;20886;-75
2022/01/16 17:24:46;;;;;;;49.33;24.20;;;3.30;99.90;;;;;;4978535;28;20473;-74
2022/01/16 17:27:13;;;;;;;39.50;24.50;;;3.20;99.90;;;;;;4985193;28;21066;-75
2022/01/16 17:29:41;;;;;;;46.30;23.53;;;3.10;99.90;;;;;;4973654;28;20486;-74
2022/01/16 17:32:08;;;;;;;48.53;23.47;;;3.00;99.90;;;;;;4963808;28;20579;-74
2022/01/16 17:34:35;;;;;;;49.43;25.13;;;3.00;99.90;;;;;;4969626;28;21011;-75
2022/01/16 17:37:04;;;;;;;49.80;26.70;;;3.00;99.90;;;;;;4959860;28;20545;-74
2022/01/16 17:39:32;;;;;;;43.83;24.03;;;3.10;99.90;;;;;;4973371;28;20522;-74
2022/01/16 17:42:03;;;;;;;54.00;28.60;;;3.10;99.90;;;;;;4988341;28;20527;-74
2022/01/16 17:44:31;;;;;;;46.80;26.33;;;3.00;99.90;;;;;;4973811;28;20483;-74
2022/01/16 17:46:58;;;;;;;43.40;23.50;;;3.00;99.90;;;;;;4973745;28;20462;-74
2022/01/16 17:49:25;;;;;;;47.90;24.63;;;3.00;99.90;;;;;;4972934;28;20580;-74